createdAt,value
2024-02-24T00:00:09.407Z,25.28
2024-02-24T00:01:09.518Z,25.28
2024-02-24T00:02:09.533Z,25.28
2024-02-24T00:03:09.522Z,25.29
2024-02-24T00:04:09.572Z,25.28
2024-02-24T00:05:09.676Z,25.28
2024-02-24T00:06:09.807Z,25.28
2024-02-24T00:07:09.715Z,25.26
2024-02-24T00:08:09.743Z,25.28
2024-02-24T00:09:09.757Z,25.25
2024-02-24T00:10:09.806Z,25.25
2024-02-24T00:11:09.887Z,25.28
2024-02-24T00:12:09.914Z,25.25
2024-02-24T00:13:09.896Z,25.25
2024-02-24T00:14:09.973Z,25.29
2024-02-24T00:15:09.984Z,25.25
2024-02-24T00:16:10.005Z,25.25
2024-02-24T00:17:10.089Z,25.28
2024-02-24T00:18:10.119Z,25.23
2024-02-24T00:19:10.167Z,25.29
2024-02-24T00:20:10.207Z,25.28
2024-02-24T00:21:10.226Z,25.23
2024-02-24T00:22:10.285Z,25.26
2024-02-24T00:23:10.353Z,25.26
2024-02-24T00:24:10.376Z,25.25
2024-02-24T00:25:10.393Z,25.25
2024-02-24T00:26:11.419Z,25.28
2024-02-24T00:27:10.476Z,25.26
2024-02-24T00:28:10.531Z,25.28
2024-02-24T00:29:10.606Z,25.25
2024-02-24T00:30:10.605Z,25.26
2024-02-24T00:31:10.667Z,25.26
2024-02-24T00:32:10.697Z,25.26
2024-02-24T00:33:10.779Z,25.26
2024-02-24T00:34:10.817Z,25.28
2024-02-24T00:35:10.858Z,25.28
2024-02-24T00:36:10.856Z,25.26
2024-02-24T00:37:10.923Z,25.28
2024-02-24T00:38:10.970Z,25.25
2024-02-24T00:39:10.977Z,25.28
2024-02-24T00:40:11.025Z,25.25
2024-02-24T00:41:11.153Z,25.26
2024-02-24T00:42:11.107Z,25.25
2024-02-24T00:43:11.153Z,25.26
2024-02-24T00:44:11.232Z,25.28
2024-02-24T00:45:11.239Z,25.28
2024-02-24T00:46:11.283Z,25.26
2024-02-24T00:47:11.312Z,25.26
2024-02-24T00:48:11.373Z,25.23
2024-02-24T00:49:11.423Z,25.29
2024-02-24T00:50:11.517Z,25.29
2024-02-24T00:51:11.471Z,25.25
2024-02-24T00:52:11.506Z,25.25
2024-02-24T00:53:11.574Z,25.29
2024-02-24T00:54:11.577Z,25.25
2024-02-24T00:55:11.617Z,25.26
2024-02-24T00:56:11.668Z,25.28
2024-02-24T00:57:11.695Z,25.28
2024-02-24T00:58:11.722Z,25.26
2024-02-24T00:59:11.783Z,25.29
2024-02-24T01:00:11.795Z,25.29
2024-02-24T01:01:11.850Z,25.28
2024-02-24T01:02:11.903Z,25.29
2024-02-24T01:03:11.922Z,25.28
2024-02-24T01:04:12.005Z,25.28
2024-02-24T01:05:12.027Z,25.28
2024-02-24T01:06:12.036Z,25.29
2024-02-24T01:07:12.119Z,25.28
2024-02-24T01:08:12.151Z,25.28
2024-02-24T01:09:12.136Z,25.29
2024-02-24T01:10:12.177Z,25.28
2024-02-24T01:11:12.309Z,25.30
2024-02-24T01:12:12.440Z,25.28
2024-02-24T01:13:12.300Z,25.26
2024-02-24T01:14:12.462Z,25.28
2024-02-24T01:15:12.451Z,25.26
2024-02-24T01:16:12.386Z,25.29
2024-02-24T01:17:12.437Z,25.28
2024-02-24T01:18:12.590Z,25.29
2024-02-24T01:19:12.618Z,25.28
2024-02-24T01:20:12.564Z,25.26
2024-02-24T01:21:12.580Z,25.28
2024-02-24T01:22:12.596Z,25.29
2024-02-24T01:23:12.687Z,25.28
2024-02-24T01:24:12.677Z,25.29
2024-02-24T01:25:12.715Z,25.28
2024-02-24T01:26:12.775Z,25.29
2024-02-24T01:27:12.778Z,25.28
2024-02-24T01:28:12.816Z,25.26
2024-02-24T01:29:12.909Z,25.25
2024-02-24T01:30:12.876Z,25.26
2024-02-24T01:31:12.919Z,25.25
2024-02-24T01:32:12.989Z,25.26
2024-02-24T01:33:13.153Z,25.25
2024-02-24T01:34:13.200Z,25.26
2024-02-24T01:35:13.080Z,25.25
2024-02-24T01:36:13.092Z,25.26
2024-02-24T01:37:13.130Z,25.25
2024-02-24T01:38:13.217Z,25.25
2024-02-24T01:39:13.923Z,25.26
2024-02-24T01:40:13.246Z,25.23
2024-02-24T01:41:13.300Z,25.25
2024-02-24T01:42:13.323Z,25.25
2024-02-24T01:43:13.347Z,25.28
2024-02-24T01:44:13.427Z,25.23
2024-02-24T01:45:13.455Z,25.23
2024-02-24T01:46:13.453Z,25.22
2024-02-24T01:47:13.491Z,25.25
2024-02-24T01:48:13.603Z,25.25
2024-02-24T01:49:13.584Z,25.23
2024-02-24T01:50:13.644Z,25.23
2024-02-24T01:51:13.670Z,25.23
2024-02-24T01:52:13.684Z,25.23
2024-02-24T01:53:13.768Z,25.23
2024-02-24T01:54:13.781Z,25.23
2024-02-24T01:55:13.812Z,25.22
2024-02-24T01:56:13.897Z,25.22
2024-02-24T01:57:13.914Z,25.23
2024-02-24T01:58:14.059Z,25.20
2024-02-24T01:59:14.056Z,25.22
2024-02-24T02:00:14.055Z,25.23
2024-02-24T02:01:14.089Z,25.20
2024-02-24T02:02:14.155Z,25.23
2024-02-24T02:03:14.185Z,25.20
2024-02-24T02:04:14.246Z,25.20
2024-02-24T02:05:14.298Z,25.19
2024-02-24T02:06:14.381Z,25.20
2024-02-24T02:07:14.363Z,25.20
2024-02-24T02:08:14.430Z,25.19
2024-02-24T02:09:14.443Z,25.20
2024-02-24T02:10:14.500Z,25.19
2024-02-24T02:11:14.576Z,25.22
2024-02-24T02:12:14.638Z,25.20
2024-02-24T02:13:14.633Z,25.20
2024-02-24T02:14:14.703Z,25.22
2024-02-24T02:15:14.724Z,25.19
2024-02-24T02:16:14.757Z,25.19
2024-02-24T02:17:14.821Z,25.19
2024-02-24T02:18:14.934Z,25.18
2024-02-24T02:19:15.004Z,25.20
2024-02-24T02:20:14.957Z,25.19
2024-02-24T02:21:15.006Z,25.20
2024-02-24T02:22:15.060Z,25.20
2024-02-24T02:23:15.156Z,25.19
2024-02-24T02:24:15.144Z,25.19
2024-02-24T02:25:15.183Z,25.20
2024-02-24T02:26:15.282Z,25.19
2024-02-24T02:27:15.267Z,25.19
2024-02-24T02:28:15.312Z,25.19
2024-02-24T02:29:15.400Z,25.19
2024-02-24T02:30:15.404Z,25.22
2024-02-24T02:31:15.455Z,25.20
2024-02-24T02:32:15.515Z,25.20
2024-02-24T02:33:15.666Z,25.19
2024-02-24T02:34:15.645Z,25.19
2024-02-24T02:35:15.682Z,25.18
2024-02-24T02:36:15.702Z,25.19
2024-02-24T02:37:15.725Z,25.19
2024-02-24T02:38:15.796Z,25.19
2024-02-24T02:39:15.827Z,25.16
2024-02-24T02:40:15.885Z,25.18
2024-02-24T02:41:15.955Z,25.19
2024-02-24T02:42:15.957Z,25.18
2024-02-24T02:43:15.998Z,25.20
2024-02-24T02:44:16.104Z,25.20
2024-02-24T02:45:16.086Z,25.22
2024-02-24T02:46:16.128Z,25.20
2024-02-24T02:47:19.975Z,25.16
2024-02-24T02:48:17.371Z,25.19
2024-02-24T02:49:16.275Z,25.18
2024-02-24T02:50:16.216Z,25.18
2024-02-24T02:51:16.195Z,25.20
2024-02-24T02:52:16.197Z,25.20
2024-02-24T02:53:16.207Z,25.19
2024-02-24T02:54:16.175Z,25.18
2024-02-24T02:55:16.197Z,25.16
2024-02-24T02:56:16.229Z,25.20
2024-02-24T02:57:16.187Z,25.19
2024-02-24T02:58:16.202Z,25.20
2024-02-24T02:59:16.230Z,25.19
2024-02-24T03:00:16.218Z,25.19
2024-02-24T03:01:16.284Z,25.19
2024-02-24T03:02:16.339Z,25.19
2024-02-24T03:03:16.442Z,25.22
2024-02-24T03:04:16.403Z,25.19
2024-02-24T03:05:16.544Z,25.19
2024-02-24T03:06:16.599Z,25.20
2024-02-24T03:07:16.547Z,25.18
2024-02-24T03:08:16.610Z,25.19
2024-02-24T03:09:16.644Z,25.20
2024-02-24T03:10:16.719Z,25.19
2024-02-24T03:11:16.812Z,25.19
2024-02-24T03:12:17.079Z,25.20
2024-02-24T03:13:16.817Z,25.20
2024-02-24T03:14:16.877Z,25.19
2024-02-24T03:15:16.900Z,25.19
2024-02-24T03:16:16.939Z,25.18
2024-02-24T03:17:17.010Z,25.19
2024-02-24T03:18:17.129Z,25.19
2024-02-24T03:19:17.178Z,25.18
2024-02-24T03:20:17.127Z,25.20
2024-02-24T03:21:17.177Z,25.18
2024-02-24T03:22:17.214Z,25.19
2024-02-24T03:23:17.325Z,25.18
2024-02-24T03:24:17.316Z,25.18
2024-02-24T03:25:17.356Z,25.18
2024-02-24T03:26:17.423Z,25.20
2024-02-24T03:27:17.439Z,25.19
2024-02-24T03:28:17.496Z,25.19
2024-02-24T03:29:17.571Z,25.20
2024-02-24T03:30:17.604Z,25.19
2024-02-24T03:31:17.651Z,25.18
2024-02-24T03:32:17.737Z,25.18
2024-02-24T03:33:17.849Z,25.19
2024-02-24T03:34:17.821Z,25.19
2024-02-24T03:35:17.869Z,25.18
2024-02-24T03:36:17.912Z,25.18
2024-02-24T03:37:17.937Z,25.16
2024-02-24T03:38:18.000Z,25.15
2024-02-24T03:39:18.023Z,25.18
2024-02-24T03:40:18.069Z,25.16
2024-02-24T03:41:18.189Z,25.18
2024-02-24T03:42:18.159Z,25.16
2024-02-24T03:43:18.201Z,25.18
2024-02-24T03:44:18.251Z,25.16
2024-02-24T03:45:18.286Z,25.15
2024-02-24T03:46:18.337Z,25.16
2024-02-24T03:47:18.425Z,25.16
2024-02-24T03:48:18.542Z,25.15
2024-02-24T03:49:18.536Z,25.15
2024-02-24T03:50:18.513Z,25.15
2024-02-24T03:51:18.562Z,25.18
2024-02-24T03:52:18.621Z,25.13
2024-02-24T03:53:18.693Z,25.15
2024-02-24T03:54:18.698Z,25.13
2024-02-24T03:55:18.743Z,25.13
2024-02-24T03:56:18.805Z,25.16
2024-02-24T03:57:18.832Z,25.13
2024-02-24T03:58:18.878Z,25.13
2024-02-24T03:59:19.005Z,25.16
2024-02-24T04:00:18.993Z,25.13
2024-02-24T04:01:19.068Z,25.12
2024-02-24T04:02:19.108Z,25.12
2024-02-24T04:03:19.116Z,25.13
2024-02-24T04:04:19.230Z,25.12
2024-02-24T04:05:19.250Z,25.13
2024-02-24T04:06:19.275Z,25.16
2024-02-24T04:07:19.269Z,25.10
2024-02-24T04:08:19.408Z,25.10
2024-02-24T04:09:19.423Z,25.10
2024-02-24T04:10:19.427Z,25.12
2024-02-24T04:11:19.621Z,25.12
2024-02-24T04:12:19.557Z,25.12
2024-02-24T04:13:19.559Z,25.10
2024-02-24T04:14:19.665Z,25.12
2024-02-24T04:15:19.666Z,25.12
2024-02-24T04:16:19.731Z,25.12
2024-02-24T04:17:19.802Z,25.12
2024-02-24T04:18:20.018Z,25.12
2024-02-24T04:19:19.926Z,25.09
2024-02-24T04:20:19.906Z,25.10
2024-02-24T04:21:19.969Z,25.12
2024-02-24T04:22:19.992Z,25.09
2024-02-24T04:23:20.072Z,25.10
2024-02-24T04:24:20.079Z,25.10
2024-02-24T04:25:20.119Z,25.12
2024-02-24T04:26:20.220Z,25.10
2024-02-24T04:27:27.540Z,25.08
2024-02-24T04:28:27.421Z,25.10
2024-02-24T04:29:27.461Z,25.06
2024-02-24T04:30:27.446Z,25.09
2024-02-24T04:31:34.693Z,25.08
2024-02-24T04:32:34.699Z,25.09
2024-02-24T04:33:34.778Z,25.09
2024-02-24T04:34:34.713Z,25.08
2024-02-24T04:35:34.817Z,25.09
2024-02-24T04:36:34.689Z,25.09
2024-02-24T04:37:34.660Z,25.12
2024-02-24T04:38:34.732Z,25.10
2024-02-24T04:39:34.671Z,25.13
2024-02-24T04:40:34.681Z,25.10
2024-02-24T04:41:34.731Z,25.09
2024-02-24T04:42:34.666Z,25.10
2024-02-24T04:43:37.106Z,25.10
2024-02-24T04:44:34.765Z,25.12
2024-02-24T04:45:34.689Z,25.12
2024-02-24T04:46:34.706Z,25.12
2024-02-24T04:47:34.734Z,25.15
2024-02-24T04:48:34.849Z,25.13
2024-02-24T04:49:34.692Z,25.10
2024-02-24T04:50:34.707Z,25.12
2024-02-24T04:51:34.725Z,25.13
2024-02-24T04:52:34.681Z,25.13
2024-02-24T04:53:34.725Z,25.15
2024-02-24T04:54:34.703Z,25.10
2024-02-24T04:55:34.684Z,25.12
2024-02-24T04:56:34.787Z,25.10
2024-02-24T04:57:34.704Z,25.12
2024-02-24T04:58:34.707Z,25.12
2024-02-24T04:59:34.776Z,25.12
2024-02-24T05:00:34.717Z,25.13
2024-02-24T05:01:34.720Z,25.12
2024-02-24T05:02:34.747Z,25.13
2024-02-24T05:03:34.716Z,25.12
2024-02-24T05:04:34.746Z,25.13
2024-02-24T05:05:34.795Z,25.13
2024-02-24T05:06:34.739Z,25.13
2024-02-24T05:07:34.718Z,25.10
2024-02-24T05:08:34.821Z,25.15
2024-02-24T05:09:34.717Z,25.10
2024-02-24T05:10:34.713Z,25.13
2024-02-24T05:11:34.894Z,25.12
2024-02-24T05:12:34.731Z,25.15
2024-02-24T05:13:34.740Z,25.13
2024-02-24T05:14:34.770Z,25.13
2024-02-24T05:15:34.734Z,25.13
2024-02-24T05:16:34.720Z,25.13
2024-02-24T05:17:34.771Z,25.12
2024-02-24T05:18:34.870Z,25.12
2024-02-24T05:19:34.801Z,25.13
2024-02-24T05:20:34.758Z,25.13
2024-02-24T05:21:34.744Z,25.09
2024-02-24T05:22:34.745Z,25.15
2024-02-24T05:23:34.793Z,25.15
2024-02-24T05:24:34.723Z,25.12
2024-02-24T05:25:34.777Z,25.15
2024-02-24T05:26:34.757Z,25.12
2024-02-24T05:27:34.742Z,25.12
2024-02-24T05:28:34.741Z,25.12
2024-02-24T05:29:34.769Z,25.13
2024-02-24T05:30:34.737Z,25.12
2024-02-24T05:31:34.731Z,25.10
2024-02-24T05:32:34.858Z,25.13
2024-02-24T05:33:34.822Z,25.12
2024-02-24T05:34:34.807Z,25.10
2024-02-24T05:35:34.873Z,25.12
2024-02-24T05:36:34.900Z,25.09
2024-02-24T05:37:34.945Z,25.13
2024-02-24T05:38:35.057Z,25.12
2024-02-24T05:39:35.044Z,25.10
2024-02-24T05:40:35.123Z,25.12
2024-02-24T05:41:35.238Z,25.10
2024-02-24T05:42:35.204Z,25.12
2024-02-24T05:43:35.260Z,25.12
2024-02-24T05:44:35.376Z,25.10
2024-02-24T05:45:35.374Z,25.10
2024-02-24T05:46:35.428Z,25.10
2024-02-24T05:47:35.602Z,25.12
2024-02-24T05:48:35.538Z,25.09
2024-02-24T05:49:35.650Z,25.10
2024-02-24T05:50:35.672Z,25.09
2024-02-24T05:51:35.689Z,25.09
2024-02-24T05:52:35.763Z,25.09
2024-02-24T05:53:35.869Z,25.09
2024-02-24T05:54:35.830Z,25.12
2024-02-24T05:55:35.895Z,25.09
2024-02-24T05:56:36.012Z,25.10
2024-02-24T05:57:36.030Z,25.09
2024-02-24T05:58:36.076Z,25.08
2024-02-24T05:59:36.155Z,25.10
2024-02-24T06:00:36.238Z,25.09
2024-02-24T06:01:36.254Z,25.06
2024-02-24T06:02:36.315Z,25.08
2024-02-24T06:03:36.413Z,25.09
2024-02-24T06:04:36.401Z,25.09
2024-02-24T06:05:36.508Z,25.09
2024-02-24T06:06:36.594Z,25.09
2024-02-24T06:07:36.553Z,25.09
2024-02-24T06:08:36.712Z,25.08
2024-02-24T06:09:36.666Z,25.08
2024-02-24T06:10:36.736Z,25.06
2024-02-24T06:11:36.853Z,25.10
2024-02-24T06:12:36.854Z,25.06
2024-02-24T06:13:36.886Z,25.09
2024-02-24T06:14:36.988Z,25.08
2024-02-24T06:15:36.989Z,25.09
2024-02-24T06:16:37.044Z,25.09
2024-02-24T06:17:37.132Z,25.09
2024-02-24T06:18:37.220Z,25.09
2024-02-24T06:19:37.300Z,25.10
2024-02-24T06:20:37.274Z,25.09
2024-02-24T06:21:37.344Z,25.09
2024-02-24T06:22:37.350Z,25.08
2024-02-24T06:23:37.437Z,25.10
2024-02-24T06:24:37.459Z,25.10
2024-02-24T06:25:37.508Z,25.10
2024-02-24T06:26:37.597Z,25.09
2024-02-24T06:27:37.596Z,25.10
2024-02-24T06:28:37.643Z,25.10
2024-02-24T06:29:37.743Z,25.09
2024-02-24T06:30:37.749Z,25.12
2024-02-24T06:31:37.816Z,25.10
2024-02-24T06:32:37.918Z,25.12
2024-02-24T06:33:38.000Z,25.12
2024-02-24T06:34:37.958Z,25.10
2024-02-24T06:35:38.041Z,25.12
2024-02-24T06:36:38.075Z,25.10
2024-02-24T06:37:38.084Z,25.12
2024-02-24T06:38:38.175Z,25.10
2024-02-24T06:39:38.169Z,25.12
2024-02-24T06:40:45.191Z,25.10
2024-02-24T06:41:39.355Z,25.13
2024-02-24T06:42:38.334Z,25.15
2024-02-24T06:43:38.211Z,25.18
2024-02-24T06:44:38.284Z,25.15
2024-02-24T06:45:38.264Z,25.16
2024-02-24T06:46:38.237Z,25.18
2024-02-24T06:47:38.360Z,25.19
2024-02-24T06:48:38.431Z,25.20
2024-02-24T06:49:38.258Z,25.19
2024-02-24T06:50:38.263Z,25.19
2024-02-24T06:51:38.288Z,25.20
2024-02-24T06:52:38.249Z,25.22
2024-02-24T06:53:38.287Z,25.22
2024-02-24T06:54:38.337Z,25.20
2024-02-24T06:55:38.356Z,25.20
2024-02-24T06:56:38.602Z,25.25
2024-02-24T06:57:38.457Z,25.25
2024-02-24T06:58:38.684Z,25.26
2024-02-24T06:59:38.699Z,25.29
2024-02-24T07:00:38.769Z,25.39
2024-02-24T07:01:38.631Z,25.46
2024-02-24T07:02:38.809Z,25.53
2024-02-24T07:03:38.743Z,25.53
2024-02-24T07:04:38.679Z,25.54
2024-02-24T07:05:38.784Z,25.51
2024-02-24T07:06:38.833Z,25.53
2024-02-24T07:07:38.842Z,25.54
2024-02-24T07:08:38.853Z,25.50
2024-02-24T07:09:38.834Z,25.49
2024-02-24T07:10:38.860Z,25.49
2024-02-24T07:11:39.045Z,25.47
2024-02-24T07:12:42.979Z,25.49
2024-02-24T07:13:38.932Z,25.49
2024-02-24T07:14:38.966Z,25.49
2024-02-24T07:15:38.936Z,25.54
2024-02-24T07:16:38.954Z,25.80
2024-02-24T07:17:39.085Z,26.28
2024-02-24T07:18:39.045Z,27.02
2024-02-24T07:19:38.954Z,27.43
2024-02-24T07:20:39.067Z,27.46
2024-02-24T07:21:39.027Z,27.37
2024-02-24T07:22:38.972Z,27.36
2024-02-24T07:23:38.968Z,27.32
2024-02-24T07:24:38.949Z,27.32
2024-02-24T07:25:38.953Z,27.30
2024-02-24T07:26:38.982Z,27.26
2024-02-24T07:27:39.029Z,27.23
2024-02-24T07:28:38.942Z,27.22
2024-02-24T07:29:39.057Z,27.23
2024-02-24T07:30:38.959Z,27.25
2024-02-24T07:31:39.033Z,27.28
2024-02-24T07:32:41.800Z,27.34
2024-02-24T07:33:39.244Z,27.37
2024-02-24T07:34:39.353Z,27.46
2024-02-24T07:35:38.990Z,27.53
2024-02-24T07:36:38.974Z,27.58
2024-02-24T07:37:38.958Z,27.65
2024-02-24T07:38:39.019Z,27.68
2024-02-24T07:39:38.966Z,27.79
2024-02-24T07:40:38.980Z,27.84
2024-02-24T07:41:39.127Z,27.87
2024-02-24T07:42:38.972Z,27.91
2024-02-24T07:43:38.980Z,27.97
2024-02-24T07:44:39.107Z,27.98
2024-02-24T07:45:38.976Z,28.05
2024-02-24T07:46:39.009Z,28.09
2024-02-24T07:47:39.223Z,28.12
2024-02-24T07:48:39.028Z,28.15
2024-02-24T07:49:39.052Z,28.19
2024-02-24T07:50:39.034Z,28.21
2024-02-24T07:51:39.030Z,28.22
2024-02-24T07:52:38.995Z,28.25
2024-02-24T07:53:39.027Z,28.27
2024-02-24T07:54:39.048Z,28.27
2024-02-24T07:55:39.027Z,28.28
2024-02-24T07:56:39.142Z,28.31
2024-02-24T07:57:39.147Z,28.31
2024-02-24T07:58:39.201Z,28.34
2024-02-24T07:59:39.333Z,28.34
2024-02-24T08:00:39.357Z,28.35
2024-02-24T08:01:39.503Z,28.35
2024-02-24T08:02:39.492Z,28.38
2024-02-24T08:03:39.522Z,28.38
2024-02-24T08:04:39.533Z,28.39
2024-02-24T08:05:39.595Z,28.41
2024-02-24T08:06:39.696Z,28.41
2024-02-24T08:07:39.685Z,28.39
2024-02-24T08:08:39.769Z,28.39
2024-02-24T08:09:39.782Z,28.41
2024-02-24T08:10:39.866Z,28.41
2024-02-24T08:11:40.042Z,28.41
2024-02-24T08:12:39.953Z,28.37
2024-02-24T08:13:39.977Z,28.37
2024-02-24T08:14:40.069Z,28.39
2024-02-24T08:15:40.078Z,28.42
2024-02-24T08:16:40.133Z,28.44
2024-02-24T08:17:40.299Z,28.48
2024-02-24T08:18:40.334Z,28.49
2024-02-24T08:19:40.372Z,28.52
2024-02-24T08:20:40.409Z,28.52
2024-02-24T08:21:40.392Z,28.58
2024-02-24T08:22:40.425Z,28.59
2024-02-24T08:23:40.526Z,28.62
2024-02-24T08:24:40.544Z,28.62
2024-02-24T08:25:40.762Z,28.65
2024-02-24T08:26:41.380Z,28.66
2024-02-24T08:27:40.625Z,28.68
2024-02-24T08:28:40.655Z,28.70
2024-02-24T08:29:40.774Z,28.70
2024-02-24T08:30:40.751Z,28.70
2024-02-24T08:31:40.862Z,28.73
2024-02-24T08:32:40.926Z,28.73
2024-02-24T08:33:41.000Z,28.73
2024-02-24T08:34:40.904Z,28.78
2024-02-24T08:35:40.971Z,28.75
2024-02-24T08:36:41.067Z,28.79
2024-02-24T08:37:40.991Z,28.82
2024-02-24T08:38:41.073Z,28.82
2024-02-24T08:39:41.049Z,28.85
2024-02-24T08:40:41.075Z,28.88
2024-02-24T08:41:41.246Z,28.93
2024-02-24T08:42:41.115Z,28.96
2024-02-24T08:43:41.161Z,28.99
2024-02-24T08:44:41.253Z,29.02
2024-02-24T08:45:41.197Z,29.03
2024-02-24T08:46:41.226Z,29.07
2024-02-24T08:47:41.290Z,29.09
2024-02-24T08:48:41.985Z,29.12
2024-02-24T08:49:41.251Z,29.14
2024-02-24T08:50:41.406Z,29.16
2024-02-24T08:51:41.292Z,29.19
2024-02-24T08:52:46.735Z,29.22
2024-02-24T08:53:42.280Z,29.23
2024-02-24T08:54:41.273Z,29.26
2024-02-24T08:55:41.282Z,29.27
2024-02-24T08:56:41.318Z,29.27
2024-02-24T08:57:41.288Z,29.29
2024-02-24T08:58:41.291Z,29.32
2024-02-24T08:59:41.358Z,29.33
2024-02-24T09:00:41.320Z,29.32
2024-02-24T09:01:41.280Z,29.34
2024-02-24T09:02:41.360Z,29.33
2024-02-24T09:03:41.314Z,29.32
2024-02-24T09:04:41.311Z,29.32
2024-02-24T09:05:41.394Z,29.33
2024-02-24T09:06:41.431Z,29.34
2024-02-24T09:07:41.389Z,29.36
2024-02-24T09:08:41.462Z,29.33
2024-02-24T09:09:41.300Z,29.36
2024-02-24T09:10:41.312Z,29.32
2024-02-24T09:11:41.416Z,29.34
2024-02-24T09:12:41.328Z,29.34
2024-02-24T09:13:41.312Z,29.33
2024-02-24T09:14:41.420Z,29.36
2024-02-24T09:15:41.426Z,29.34
2024-02-24T09:16:41.474Z,29.34
2024-02-24T09:17:41.661Z,29.33
2024-02-24T09:18:41.683Z,29.34
2024-02-24T09:19:41.749Z,29.36
2024-02-24T09:20:41.804Z,29.36
2024-02-24T09:21:41.845Z,29.34
2024-02-24T09:22:41.901Z,29.34
2024-02-24T09:23:41.976Z,29.33
2024-02-24T09:24:42.026Z,29.34
2024-02-24T09:25:42.120Z,29.37
2024-02-24T09:26:42.256Z,29.34
2024-02-24T09:27:42.234Z,29.37
2024-02-24T09:28:42.307Z,29.36
2024-02-24T09:29:42.436Z,29.37
2024-02-24T09:30:42.433Z,29.37
2024-02-24T09:31:42.519Z,29.37
2024-02-24T09:32:42.716Z,29.38
2024-02-24T09:33:42.875Z,29.42
2024-02-24T09:34:42.763Z,29.42
2024-02-24T09:35:42.867Z,29.42
2024-02-24T09:36:42.883Z,29.42
2024-02-24T09:37:42.955Z,29.42
2024-02-24T09:38:43.074Z,29.43
2024-02-24T09:39:43.079Z,29.46
2024-02-24T09:40:43.149Z,29.44
2024-02-24T09:41:43.246Z,29.46
2024-02-24T09:42:43.268Z,29.44
2024-02-24T09:43:43.351Z,29.47
2024-02-24T09:44:43.431Z,29.47
2024-02-24T09:45:43.652Z,29.50
2024-02-24T09:46:43.532Z,29.50
2024-02-24T09:47:43.662Z,29.52
2024-02-24T09:48:43.736Z,29.53
2024-02-24T09:49:43.751Z,29.52
2024-02-24T09:50:43.787Z,29.50
2024-02-24T09:51:46.389Z,29.53
2024-02-24T09:52:43.860Z,29.53
2024-02-24T09:53:43.860Z,29.54
2024-02-24T09:54:43.834Z,29.53
2024-02-24T09:55:43.807Z,29.52
2024-02-24T09:56:43.916Z,29.50
2024-02-24T09:57:43.855Z,29.50
2024-02-24T09:58:43.814Z,29.47
2024-02-24T09:59:43.856Z,29.49
2024-02-24T10:00:43.863Z,29.53
2024-02-24T10:01:43.832Z,29.52
2024-02-24T10:02:44.040Z,29.53
2024-02-24T10:03:43.923Z,29.54
2024-02-24T10:04:43.883Z,29.56
2024-02-24T10:05:43.924Z,29.56
2024-02-24T10:06:43.953Z,29.58
2024-02-24T10:07:43.843Z,29.60
2024-02-24T10:08:43.904Z,29.61
2024-02-24T10:09:43.837Z,29.63
2024-02-24T10:10:43.871Z,29.64
2024-02-24T10:11:44.024Z,29.64
2024-02-24T10:12:43.859Z,29.67
2024-02-24T10:13:45.181Z,29.64
2024-02-24T10:14:43.864Z,29.65
2024-02-24T10:15:43.856Z,29.67
2024-02-24T10:16:43.851Z,29.67
2024-02-24T10:17:43.891Z,29.70
2024-02-24T10:18:43.980Z,29.70
2024-02-24T10:19:43.902Z,29.71
2024-02-24T10:20:43.914Z,29.70
2024-02-24T10:21:43.893Z,29.65
2024-02-24T10:22:43.880Z,29.71
2024-02-24T10:23:43.956Z,29.71
2024-02-24T10:24:43.860Z,29.71
2024-02-24T10:25:43.877Z,29.71
2024-02-24T10:26:43.913Z,29.75
2024-02-24T10:27:43.881Z,29.73
2024-02-24T10:28:43.881Z,29.71
2024-02-24T10:29:43.926Z,29.73
2024-02-24T10:30:43.877Z,29.73
2024-02-24T10:31:43.921Z,29.73
2024-02-24T10:32:44.055Z,29.71
2024-02-24T10:33:43.991Z,29.71
2024-02-24T10:34:43.906Z,29.74
2024-02-24T10:35:43.916Z,29.75
2024-02-24T10:36:43.913Z,29.71
2024-02-24T10:37:57.199Z,29.73
2024-02-24T10:38:48.456Z,29.73
2024-02-24T10:39:44.913Z,29.73
2024-02-24T10:40:43.913Z,29.74
2024-02-24T10:41:43.958Z,29.73
2024-02-24T10:42:43.917Z,29.73
2024-02-24T10:43:43.921Z,29.71
2024-02-24T10:44:43.939Z,29.73
2024-02-24T10:45:43.925Z,29.70
2024-02-24T10:46:43.942Z,29.71
2024-02-24T10:47:43.956Z,29.73
2024-02-24T10:48:46.858Z,29.68
2024-02-24T10:49:43.938Z,29.70
2024-02-24T10:50:43.992Z,29.73
2024-02-24T10:51:43.960Z,29.70
2024-02-24T10:52:44.005Z,29.70
2024-02-24T10:53:43.987Z,29.73
2024-02-24T10:54:43.939Z,29.77
2024-02-24T10:55:43.936Z,29.74
2024-02-24T10:56:44.042Z,29.75
2024-02-24T10:57:43.954Z,29.77
2024-02-24T10:58:43.955Z,29.77
2024-02-24T10:59:43.983Z,29.78
2024-02-24T11:00:44.000Z,29.78
2024-02-24T11:01:43.963Z,29.78
2024-02-24T11:02:44.043Z,29.83
2024-02-24T11:03:43.976Z,29.81
2024-02-24T11:04:44.016Z,29.85
2024-02-24T11:05:43.994Z,29.83
2024-02-24T11:06:44.103Z,29.83
2024-02-24T11:07:44.073Z,29.84
2024-02-24T11:08:44.004Z,29.83
2024-02-24T11:09:43.974Z,29.81
2024-02-24T11:10:43.973Z,29.83
2024-02-24T11:11:44.124Z,29.84
2024-02-24T11:12:43.966Z,29.83
2024-02-24T11:13:46.733Z,29.84
2024-02-24T11:14:45.047Z,29.81
2024-02-24T11:15:43.965Z,29.83
2024-02-24T11:16:43.973Z,29.84
2024-02-24T11:17:44.046Z,29.84
2024-02-24T11:18:44.049Z,29.83
2024-02-24T11:19:44.147Z,29.84
2024-02-24T11:20:44.027Z,29.83
2024-02-24T11:21:43.982Z,29.84
2024-02-24T11:22:44.009Z,29.83
2024-02-24T11:23:44.035Z,29.83
2024-02-24T11:24:43.977Z,29.81
2024-02-24T11:25:43.982Z,29.81
2024-02-24T11:26:44.040Z,29.84
2024-02-24T11:27:44.006Z,29.84
2024-02-24T11:28:44.949Z,29.83
2024-02-24T11:29:44.071Z,29.85
2024-02-24T11:30:43.988Z,29.83
2024-02-24T11:31:44.017Z,29.81
2024-02-24T11:32:44.089Z,29.81
2024-02-24T11:33:44.128Z,29.81
2024-02-24T11:34:45.062Z,29.83
2024-02-24T11:35:44.195Z,29.83
2024-02-24T11:36:44.104Z,29.84
2024-02-24T11:37:44.463Z,29.84
2024-02-24T11:38:44.220Z,29.83
2024-02-24T11:39:44.784Z,29.83
2024-02-24T11:40:44.224Z,29.81
2024-02-24T11:41:44.435Z,29.84
2024-02-24T11:42:44.331Z,29.83
2024-02-24T11:43:44.329Z,29.84
2024-02-24T11:44:44.421Z,29.84
2024-02-24T11:45:44.498Z,29.81
2024-02-24T11:46:44.430Z,29.83
2024-02-24T11:47:44.582Z,29.80
2024-02-24T11:48:44.733Z,29.81
2024-02-24T11:49:44.587Z,29.83
2024-02-24T11:50:44.583Z,29.81
2024-02-24T11:51:44.841Z,29.81
2024-02-24T11:52:44.652Z,29.83
2024-02-24T11:53:44.701Z,29.81
2024-02-24T11:54:44.709Z,29.81
2024-02-24T11:55:44.750Z,29.83
2024-02-24T11:56:44.815Z,29.81
2024-02-24T11:57:44.803Z,29.81
2024-02-24T11:58:44.834Z,29.83
2024-02-24T11:59:44.888Z,29.83
2024-02-24T12:00:45.003Z,29.81
2024-02-24T12:01:44.902Z,29.81
2024-02-24T12:02:44.934Z,29.81
2024-02-24T12:03:44.972Z,29.81
2024-02-24T12:04:45.041Z,29.80
2024-02-24T12:05:45.158Z,29.81
2024-02-24T12:06:45.101Z,29.77
2024-02-24T12:07:45.095Z,29.78
2024-02-24T12:08:45.183Z,29.80
2024-02-24T12:09:45.157Z,29.78
2024-02-24T12:10:45.205Z,29.77
2024-02-24T12:11:45.255Z,29.74
2024-02-24T12:12:45.225Z,29.74
2024-02-24T12:13:45.274Z,29.74
2024-02-24T12:14:45.345Z,29.74
2024-02-24T12:15:45.347Z,29.75
2024-02-24T12:16:45.398Z,29.74
2024-02-24T12:17:45.442Z,29.74
2024-02-24T12:18:45.536Z,29.73
2024-02-24T12:19:45.524Z,29.71
2024-02-24T12:20:45.546Z,29.71
2024-02-24T12:21:45.573Z,29.70
2024-02-24T12:22:45.598Z,29.70
2024-02-24T12:23:45.677Z,29.68
2024-02-24T12:24:45.642Z,29.68
2024-02-24T12:25:45.680Z,29.67
2024-02-24T12:26:45.763Z,29.64
2024-02-24T12:27:45.759Z,29.63
2024-02-24T12:28:45.815Z,29.65
2024-02-24T12:29:45.873Z,29.64
2024-02-24T12:30:45.891Z,29.61
2024-02-24T12:31:45.936Z,29.64
2024-02-24T12:32:46.039Z,29.60
2024-02-24T12:33:46.723Z,29.60
2024-02-24T12:34:46.132Z,29.58
2024-02-24T12:35:46.129Z,29.57
2024-02-24T12:36:46.147Z,29.57
2024-02-24T12:37:46.173Z,29.54
2024-02-24T12:38:46.257Z,29.56
2024-02-24T12:39:46.276Z,29.53
2024-02-24T12:40:46.343Z,29.52
2024-02-24T12:41:46.375Z,29.52
2024-02-24T12:42:46.427Z,29.50
2024-02-24T12:43:46.469Z,29.47
2024-02-24T12:44:46.655Z,29.44
2024-02-24T12:45:46.562Z,29.44
2024-02-24T12:46:46.621Z,29.42
2024-02-24T12:47:46.697Z,29.43
2024-02-24T12:48:46.976Z,29.38
2024-02-24T12:49:46.814Z,29.40
2024-02-24T12:50:46.866Z,29.37
2024-02-24T12:51:46.868Z,29.36
2024-02-24T12:52:46.955Z,29.37